DAK weather

Dakhla Airport
New Valley Governorate, Egypt

Public forecast

Using degrees Celsius for public forecast. Weather courtesy of forecast.io.

Closest aviation weather report (METAR) to Dakhla Airport

Closest report is Asyut International Airport, 146.1 nm (270.5 km) NE. Retrieved 2020/07/07 23:00 UTC (1 hour ago):

HEAT 072300Z 28007KT CAVOK 28/08 Q1008 NOSIG

Closest aviation forecast (TAF) to Dakhla Airport

Closest forecast is Asyut International Airport, 146.1 nm (270.5 km) NE. Retrieved 2020-07-08 00:00 UTC (29 minutes ago):

TAF HEAT 072300Z 0800/0906 32008G20KT CAVOK